Aviation Digital Data Service (ADDS)

Output produced by METARs form (0312 UTC 20 March 2019)
found at http://www.aviationweather.gov/metar/data/
 
Forecast for: COR
Text: TAF COR NCRG 192312Z 2000/2024 VRB03KT 9999 SCT018 BKN040
Forecast period: 0000 UTC 20 March 2019 to 0000 UTC 21 March 2019
Forecast type: FROM: standard forecast or significant change
Winds: variable direction winds at 3 MPH (3 knots; 1.5 m/s)
Visibility: 6 or more miles 10+ km)
Ceiling: 4000 feet AGL
Clouds: scattered clouds at 1800 feet AGL
broken clouds at 4000 feet AGL
Weather: no significant weather forecast for this period
Text: PROB30
Forecast period: 1200 to 2200 UTC 20 March 2019
Forecast type: TEMPORARY: The following changes expected for less than half the time period
Visibility: 3 miles (5 km)
Ceiling: 1500 feet AGL
Clouds: broken clouds at 1500 feet AGL
Weather: SHRA  (rain showers)